Time;durP1;ratioP1;P1;durP2;ratioP2;P2;SDS_P1;SDS_P2;PMS_P1;PMS_P2;Temp;Humidity;BMP_temperature;BMP_pressure;BME280_temperature;BME280_humidity;BME280_pressure;Samples;Min_cycle;Max_cycle;Signal;HPM_P1;HPM_P2
2021/05/26 00:00:20;;;;;;;7.65;3.97;;;;;;;7.52;90.85;100757.28;5079782;28;20310;-51
2021/05/26 00:02:46;;;;;;;7.00;4.28;;;;;;;7.61;90.75;100757.38;5062191;28;20123;-50
2021/05/26 00:05:12;;;;;;;6.88;3.65;;;;;;;7.85;88.16;100754.13;5084071;28;20040;-53
2021/05/26 00:07:37;;;;;;;7.40;3.80;;;;;;;7.65;89.54;100751.34;5078090;28;20067;-51
2021/05/26 00:10:09;;;;;;;6.30;4.13;;;;;;;7.76;88.69;100752.28;5064660;28;20048;-50
2021/05/26 00:12:35;;;;;;;5.05;3.30;;;;;;;7.83;88.57;100758.41;5080422;28;20441;-50
2021/05/26 00:15:01;;;;;;;5.85;4.35;;;;;;;7.63;89.40;100745.25;5081588;28;20035;-50
2021/05/26 00:17:28;;;;;;;7.70;3.67;;;;;;;7.55;90.00;100736.50;5081198;28;20039;-51
2021/05/26 00:19:55;;;;;;;7.55;3.25;;;;;;;7.87;86.94;100743.72;5082188;28;20084;-50
2021/05/26 00:22:21;;;;;;;6.90;3.15;;;;;;;7.59;89.44;100738.28;5080202;28;20047;-50
2021/05/26 00:24:46;;;;;;;7.35;3.22;;;;;;;7.75;88.07;100734.91;5082731;28;20051;-52
2021/05/26 00:27:12;;;;;;;6.50;3.20;;;;;;;7.86;87.36;100739.34;5079417;28;20040;-52
2021/05/26 00:29:38;;;;;;;8.18;3.38;;;;;;;7.97;86.42;100740.31;5081529;28;20048;-50
2021/05/26 00:32:04;;;;;;;4.60;2.70;;;;;;;8.17;84.57;100733.50;5084324;28;20048;-50
2021/05/26 00:34:30;;;;;;;8.35;3.58;;;;;;;7.93;86.09;100735.94;5047610;28;20039;-52
2021/05/26 00:37:01;;;;;;;7.00;3.03;;;;;;;7.70;88.24;100725.34;5058823;28;20488;-52
2021/05/26 00:39:26;;;;;;;6.63;3.55;;;;;;;7.61;89.38;100726.16;5083139;28;20123;-52
2021/05/26 00:41:52;;;;;;;8.05;3.95;;;;;;;7.60;88.88;100716.59;5079467;28;20083;-51
2021/05/26 00:44:18;;;;;;;7.00;3.72;;;;;;;7.58;88.82;100707.91;5081212;28;20035;-52
2021/05/26 00:46:47;;;;;;;7.72;4.10;;;;;;;7.53;89.33;100718.25;5064647;28;20028;-50
2021/05/26 00:49:13;;;;;;;7.75;5.15;;;;;;;7.47;89.96;100718.22;5061354;28;20058;-52
2021/05/26 00:51:39;;;;;;;8.75;3.92;;;;;;;7.39;90.43;100717.28;5039502;28;20527;-51
2021/05/26 00:54:06;;;;;;;8.88;4.30;;;;;;;7.24;91.32;100720.59;5048797;28;20561;-52
2021/05/26 00:56:34;;;;;;;7.05;3.92;;;;;;;7.16;91.99;100716.19;5063045;28;20247;-51
2021/05/26 00:59:01;;;;;;;9.75;4.00;;;;;;;7.10;91.59;100716.16;5061458;28;20051;-50
2021/05/26 01:01:27;;;;;;;6.57;4.47;;;;;;;7.08;92.15;100707.44;5079380;28;20051;-52
2021/05/26 01:03:57;;;;;;;6.60;4.30;;;;;;;7.10;91.93;100712.66;5062528;28;20453;-52
2021/05/26 01:06:23;;;;;;;9.35;4.97;;;;;;;7.12;92.31;100705.78;5076432;28;20301;-52
2021/05/26 01:08:49;;;;;;;10.60;4.90;;;;;;;7.10;92.26;100705.75;5060930;28;20043;-54
2021/05/26 01:11:17;;;;;;;9.60;4.75;;;;;;;7.12;92.55;100704.03;5073497;28;20430;-51
2021/05/26 01:13:43;;;;;;;7.32;4.60;;;;;;;7.11;92.10;100699.69;5080654;28;20413;-52
2021/05/26 01:16:09;;;;;;;13.85;5.00;;;;;;;7.16;91.32;100702.34;5058554;28;20055;-51
2021/05/26 01:18:36;;;;;;;9.05;4.57;;;;;;;7.15;92.22;100696.25;5061870;28;20032;-50
2021/05/26 01:21:10;;;;;;;8.63;5.32;;;;;;;7.23;91.26;100696.34;5043486;28;20048;-53
2021/05/26 01:23:47;;;;;;;9.80;5.25;;;;;;;7.24;91.97;100694.59;5060660;28;20343;-54
2021/05/26 01:26:13;;;;;;;8.98;4.55;;;;;;;7.22;92.02;100691.97;5065812;28;20116;-51
2021/05/26 01:28:39;;;;;;;8.32;4.72;;;;;;;7.26;91.45;100698.97;5059322;28;20125;-51
2021/05/26 01:31:17;;;;;;;9.77;5.30;;;;;;;7.50;90.32;100687.91;5059996;28;20075;-51
2021/05/26 01:33:43;;;;;;;7.72;4.45;;;;;;;7.54;90.26;100685.34;5079449;28;20135;-55
2021/05/26 01:36:21;;;;;;;8.65;5.60;;;;;;;7.40;91.01;100682.63;5062646;28;20036;-52
2021/05/26 01:38:49;;;;;;;11.93;6.22;;;;;;;7.54;89.43;100685.34;5048142;28;20063;-52
2021/05/26 01:41:15;;;;;;;8.25;5.07;;;;;;;7.45;89.67;100679.19;5060676;28;20276;-52
2021/05/26 01:43:44;;;;;;;10.50;5.90;;;;;;;7.55;88.83;100679.28;5066486;28;20086;-52
2021/05/26 01:46:09;;;;;;;10.70;6.75;;;;;;;7.64;89.33;100671.53;5061014;28;20044;-51
2021/05/26 01:48:35;;;;;;;11.38;6.30;;;;;;;7.54;89.57;100672.31;5054847;28;20062;-50
2021/05/26 01:51:02;;;;;;;8.57;5.72;;;;;;;7.50;89.76;100667.09;5044290;28;20476;-52
2021/05/26 01:53:29;;;;;;;8.82;5.70;;;;;;;7.46;89.47;100670.53;5045261;28;20468;-51
2021/05/26 01:55:55;;;;;;;9.05;5.95;;;;;;;7.50;89.72;100666.22;5082479;28;20134;-52
2021/05/26 01:58:21;;;;;;;13.00;6.13;;;;;;;7.54;90.40;100661.91;5080138;28;20558;-52
2021/05/26 02:00:49;;;;;;;11.48;6.93;;;;;;;7.54;90.26;100659.31;5062246;28;20036;-51
2021/05/26 02:03:15;;;;;;;8.45;6.00;;;;;;;7.56;89.57;100657.59;5076180;28;20039;-50
2021/05/26 02:05:42;;;;;;;9.80;6.07;;;;;;;7.55;88.76;100651.53;5048761;28;20036;-51
2021/05/26 02:08:08;;;;;;;8.45;6.10;;;;;;;7.57;88.85;100652.38;5052321;28;20029;-51
2021/05/26 02:13:19;;;;;;;10.32;6.00;;;;;;;7.70;88.68;100642.97;5031943;28;20500;-51
2021/05/26 02:15:50;;;;;;;9.00;6.10;;;;;;;7.78;89.57;100654.28;5061200;28;20042;-51
2021/05/26 02:18:17;;;;;;;9.85;5.80;;;;;;;7.66;89.02;100649.00;5061317;28;20071;-51
2021/05/26 02:20:42;;;;;;;10.40;6.75;;;;;;;7.74;89.41;100647.31;5055966;28;20115;-55
2021/05/26 02:23:10;;;;;;;12.63;6.95;;;;;;;7.89;88.41;100645.66;5059578;28;20035;-51
2021/05/26 02:25:38;;;;;;;14.13;6.40;;;;;;;7.70;88.29;100639.47;5054741;28;20035;-51
2021/05/26 02:28:04;;;;;;;11.52;6.22;;;;;;;7.86;87.40;100636.09;5075268;28;20043;-52
2021/05/26 02:30:32;;;;;;;12.00;5.93;;;;;;;7.72;87.52;100638.63;5074833;28;20063;-54
2021/05/26 02:32:58;;;;;;;10.93;5.97;;;;;;;7.66;87.59;100634.25;5078237;28;20067;-53
2021/05/26 02:35:24;;;;;;;10.20;5.93;;;;;;;7.82;87.51;100627.44;5077237;28;20066;-50
2021/05/26 02:37:49;;;;;;;10.52;6.75;;;;;;;7.81;87.63;100633.47;5077359;28;20109;-52
2021/05/26 02:40:15;;;;;;;9.93;5.78;;;;;;;7.81;88.14;100636.09;5042587;28;20043;-52
2021/05/26 02:42:41;;;;;;;12.32;6.55;;;;;;;7.80;87.97;100633.47;5058889;28;20044;-50
2021/05/26 02:45:07;;;;;;;11.98;5.03;;;;;;;7.91;87.37;100633.53;5058472;28;20440;-52
2021/05/26 02:47:33;;;;;;;9.32;5.45;;;;;;;8.14;86.43;100618.03;5059257;28;20036;-51
2021/05/26 02:49:59;;;;;;;9.27;5.15;;;;;;;8.19;86.04;100622.38;5080007;28;20043;-51
2021/05/26 02:52:25;;;;;;;10.27;4.93;;;;;;;8.09;87.09;100625.81;5079253;28;20116;-53
2021/05/26 02:55:03;;;;;;;10.27;4.97;;;;;;;7.90;87.00;100621.38;5045033;28;20391;-52
2021/05/26 02:57:29;;;;;;;9.05;5.18;;;;;;;8.04;87.32;100622.31;5060100;28;20035;-54
2021/05/26 03:00:17;;;;;;;10.13;4.97;;;;;;;7.83;88.17;100618.72;5052748;28;20046;-51
2021/05/26 03:02:52;;;;;;;9.80;5.07;;;;;;;7.80;88.02;100625.66;5061747;28;20040;-50
2021/05/26 03:05:20;;;;;;;9.85;5.88;;;;;;;7.91;88.13;100620.53;5058196;28;20035;-54
2021/05/26 03:07:47;;;;;;;12.52;5.25;;;;;;;7.94;87.34;100617.94;5064656;28;20055;-51
2021/05/26 03:10:16;;;;;;;8.10;4.50;;;;;;;7.85;88.81;100610.97;5062360;28;20108;-51
2021/05/26 03:12:42;;;;;;;9.70;4.50;;;;;;;7.97;87.13;100610.13;5076363;28;20047;-51
2021/05/26 03:15:15;;;;;;;8.77;4.35;;;;;;;8.25;86.42;100605.94;5046227;28;20131;-50
2021/05/26 03:17:41;;;;;;;8.68;3.75;;;;;;;8.13;86.68;100606.75;5041608;28;20395;-53
2021/05/26 03:20:12;;;;;;;8.00;3.90;;;;;;;8.22;86.27;100600.69;5063394;28;20073;-51
2021/05/26 03:23:05;;;;;;;7.22;3.63;;;;;;;8.08;87.07;100608.44;5072758;28;20476;-50
2021/05/26 03:25:49;;;;;;;9.38;3.55;;;;;;;8.17;86.00;100605.03;5081464;28;20786;-53
2021/05/26 03:28:16;;;;;;;8.50;3.30;;;;;;;8.13;86.73;100601.53;5079160;28;20507;-50
2021/05/26 03:30:43;;;;;;;10.57;4.00;;;;;;;8.10;87.34;100606.75;5066649;28;20404;-51
2021/05/26 03:33:12;;;;;;;8.77;3.38;;;;;;;8.21;86.30;100603.31;5079834;28;20044;-51
2021/05/26 03:35:40;;;;;;;9.70;3.22;;;;;;;8.32;85.46;100605.09;5074510;28;20036;-51
2021/05/26 03:38:06;;;;;;;6.80;3.05;;;;;;;8.07;87.30;100609.34;5063504;28;20032;-50
2021/05/26 03:40:42;;;;;;;10.25;3.65;;;;;;;8.17;86.45;100598.09;5033374;28;20097;-53
2021/05/26 03:43:08;;;;;;;11.57;3.95;;;;;;;8.10;86.70;100600.66;5066261;28;20043;-51
2021/05/26 03:45:38;;;;;;;9.00;3.25;;;;;;;8.09;86.35;100599.78;5080327;28;20078;-53
2021/05/26 03:48:07;;;;;;;9.05;3.78;;;;;;;8.10;86.15;100601.53;5066551;28;20044;-53
2021/05/26 03:50:33;;;;;;;8.05;3.67;;;;;;;7.91;87.08;100590.16;5064233;28;20028;-52
2021/05/26 03:52:59;;;;;;;9.55;3.95;;;;;;;8.00;86.91;100594.53;5081038;28;20071;-51
2021/05/26 03:55:26;;;;;;;5.82;3.35;;;;;;;7.96;87.51;100605.78;5064446;28;20040;-52
2021/05/26 03:57:59;;;;;;;9.38;3.72;;;;;;;8.06;86.84;100584.16;5067411;28;20295;-53
2021/05/26 04:00:27;;;;;;;7.78;4.00;;;;;;;8.01;87.52;100589.31;5060182;28;20055;-51
2021/05/26 04:03:09;;;;;;;9.73;5.15;;;;;;;7.86;86.61;100578.84;5065155;28;20391;-51
2021/05/26 04:05:35;;;;;;;9.02;4.35;;;;;;;7.78;87.18;100584.03;5047662;28;20048;-51
2021/05/26 04:08:01;;;;;;;9.55;4.80;;;;;;;7.89;87.89;100586.69;5083845;28;20048;-53
2021/05/26 04:10:27;;;;;;;10.32;4.70;;;;;;;7.94;87.34;100584.09;5065739;28;20102;-51
2021/05/26 04:12:53;;;;;;;8.75;5.03;;;;;;;7.94;87.66;100581.50;5068195;28;20040;-52
2021/05/26 04:15:27;;;;;;;10.23;4.82;;;;;;;7.98;87.85;100585.84;5054182;28;20071;-53
2021/05/26 04:18:11;;;;;;;12.18;5.20;;;;;;;7.96;88.16;100579.75;5080747;28;20063;-53
2021/05/26 04:20:41;;;;;;;10.68;5.28;;;;;;;8.07;87.33;100575.50;5064857;28;20032;-51
2021/05/26 04:23:06;;;;;;;11.90;4.88;;;;;;;7.88;86.90;100571.94;5084594;28;20668;-52
2021/05/26 04:25:34;;;;;;;9.52;4.50;;;;;;;8.11;86.60;100571.16;5063060;28;20384;-51
2021/05/26 04:28:00;;;;;;;8.63;4.43;;;;;;;8.12;86.17;100567.69;5064551;28;20052;-51
2021/05/26 04:30:27;;;;;;;8.30;4.60;;;;;;;8.17;86.20;100569.44;5067038;28;20093;-53
2021/05/26 04:32:53;;;;;;;9.27;4.20;;;;;;;8.12;85.83;100568.53;5064088;28;20047;-55
2021/05/26 04:35:19;;;;;;;9.02;3.95;;;;;;;8.28;84.90;100572.09;5077194;28;20081;-51
2021/05/26 04:37:45;;;;;;;9.85;4.43;;;;;;;8.18;85.65;100563.38;5084888;28;20118;-50
2021/05/26 04:40:11;;;;;;;10.32;4.57;;;;;;;8.05;86.51;100560.72;5078966;28;20040;-53
2021/05/26 04:42:37;;;;;;;8.55;4.70;;;;;;;7.88;86.08;100552.81;5080029;28;20564;-50
2021/05/26 04:45:03;;;;;;;8.15;4.32;;;;;;;8.05;86.92;100558.13;5082563;28;20040;-53
2021/05/26 04:47:29;;;;;;;10.43;5.57;;;;;;;8.10;85.93;100561.59;5080720;28;20115;-52
2021/05/26 04:49:54;;;;;;;8.93;4.80;;;;;;;8.09;86.67;100555.53;5084195;28;20119;-52
2021/05/26 04:52:20;;;;;;;9.05;4.70;;;;;;;7.97;87.83;100550.25;5079573;28;20115;-51
2021/05/26 04:54:46;;;;;;;10.52;5.10;;;;;;;7.86;86.67;100551.97;5080834;28;20031;-54
2021/05/26 04:57:11;;;;;;;10.38;4.80;;;;;;;7.84;86.97;100552.81;5065094;28;20044;-51
2021/05/26 04:59:37;;;;;;;8.82;4.97;;;;;;;8.10;86.50;100554.66;5078658;28;20044;-51
2021/05/26 05:02:04;;;;;;;11.48;4.55;;;;;;;8.06;86.39;100547.72;5083949;28;20032;-50
2021/05/26 05:04:30;;;;;;;7.45;4.10;;;;;;;8.17;86.61;100550.34;5078343;28;20047;-51
2021/05/26 05:06:56;;;;;;;9.00;4.25;;;;;;;8.31;85.81;100548.66;5077725;28;20488;-51
2021/05/26 05:09:22;;;;;;;9.10;4.32;;;;;;;8.19;85.38;100549.47;5080751;28;20099;-52
2021/05/26 05:11:48;;;;;;;8.43;4.55;;;;;;;8.21;86.58;100546.91;5064860;28;20044;-52
2021/05/26 05:14:13;;;;;;;8.15;3.95;;;;;;;8.08;86.48;100547.72;5061172;28;20024;-50
2021/05/26 05:16:39;;;;;;;7.10;4.20;;;;;;;8.07;86.19;100548.56;5081737;28;20480;-53
2021/05/26 05:19:05;;;;;;;6.97;3.80;;;;;;;8.13;86.20;100546.84;5064979;27;20035;-52
2021/05/26 05:21:31;;;;;;;8.77;3.92;;;;;;;8.13;86.17;100540.78;5058706;28;20056;-53
2021/05/26 05:23:57;;;;;;;7.60;4.03;;;;;;;7.99;86.19;100538.13;5062934;28;20412;-52
2021/05/26 05:26:23;;;;;;;6.20;3.85;;;;;;;7.90;85.75;100536.34;5049809;28;20450;-50
2021/05/26 05:28:49;;;;;;;9.60;4.15;;;;;;;7.94;85.27;100543.31;5080726;28;20024;-53
2021/05/26 05:31:14;;;;;;;7.60;3.90;;;;;;;8.16;85.64;100538.19;5061587;27;20411;-52
2021/05/26 05:33:40;;;;;;;6.40;3.60;;;;;;;8.11;85.98;100535.59;5055053;28;20093;-55
2021/05/26 05:36:06;;;;;;;5.95;3.92;;;;;;;8.10;86.64;100532.94;5055611;28;20052;-52
2021/05/26 05:38:31;;;;;;;8.18;4.20;;;;;;;8.01;86.69;100536.41;5057526;28;20032;-51
2021/05/26 05:40:57;;;;;;;6.82;3.55;;;;;;;8.23;85.47;100526.91;5058259;28;20127;-54
2021/05/26 05:43:23;;;;;;;8.68;4.25;;;;;;;8.24;86.45;100527.78;5056562;28;20040;-54
2021/05/26 05:45:49;;;;;;;6.57;4.00;;;;;;;8.12;86.98;100532.09;5055110;28;20519;-54
2021/05/26 05:48:14;;;;;;;7.38;4.50;;;;;;;8.23;87.22;100524.31;5056160;28;20475;-53
2021/05/26 05:50:40;;;;;;;9.52;3.67;;;;;;;8.57;85.57;100528.75;5072778;28;20632;-53
2021/05/26 05:53:06;;;;;;;8.23;3.80;;;;;;;8.32;84.62;100526.06;5055548;28;20035;-52
2021/05/26 05:55:32;;;;;;;6.72;3.90;;;;;;;8.55;84.20;100528.75;5034380;28;20697;-51
2021/05/26 05:58:04;;;;;;;8.80;4.38;;;;;;;8.26;85.35;100526.06;5061598;28;20450;-53
2021/05/26 06:00:32;;;;;;;7.80;4.68;;;;;;;8.21;85.57;100528.66;5049517;28;20048;-51
2021/05/26 06:02:58;;;;;;;5.97;3.83;;;;;;;8.38;86.75;100518.28;5049139;28;20040;-52
2021/05/26 06:05:24;;;;;;;9.00;4.93;;;;;;;8.39;85.64;100527.84;5055086;28;20040;-51
2021/05/26 06:07:50;;;;;;;7.47;4.90;;;;;;;8.33;86.21;100520.00;5055072;28;20028;-51
2021/05/26 06:10:16;;;;;;;7.70;4.65;;;;;;;8.30;86.33;100514.78;5078979;28;20400;-54
2021/05/26 06:12:41;;;;;;;6.68;4.57;;;;;;;8.45;86.80;100519.19;5040541;28;20044;-52
2021/05/26 06:15:07;;;;;;;7.20;4.10;;;;;;;8.37;86.31;100519.13;5047330;28;20044;-52
2021/05/26 06:17:33;;;;;;;7.88;4.68;;;;;;;8.74;86.22;100513.16;5049836;28;20035;-55
2021/05/26 06:19:59;;;;;;;10.48;4.50;;;;;;;8.74;86.39;100511.41;5057517;28;20032;-56
2021/05/26 06:22:26;;;;;;;8.63;4.45;;;;;;;8.51;85.89;100514.88;5074077;28;20539;-53
2021/05/26 06:24:52;;;;;;;6.78;3.72;;;;;;;8.98;82.14;100514.88;5047459;28;20036;-51
2021/05/26 06:27:18;;;;;;;5.97;3.63;;;;;;;8.72;82.23;100514.88;5059322;28;20040;-54
2021/05/26 06:29:43;;;;;;;7.90;4.68;;;;;;;8.98;83.67;100509.66;5057776;28;20055;-52
2021/05/26 06:32:09;;;;;;;7.75;4.38;;;;;;;8.77;85.14;100514.00;5080752;28;20048;-53
2021/05/26 06:34:35;;;;;;;7.13;4.18;;;;;;;9.01;81.48;100514.88;5075682;28;20148;-54
2021/05/26 06:37:01;;;;;;;6.65;3.97;;;;;;;8.89;82.77;100514.88;5042701;28;20036;-52
2021/05/26 06:39:28;;;;;;;6.75;4.53;;;;;;;8.67;85.34;100509.66;5072688;28;20031;-52
2021/05/26 06:41:54;;;;;;;7.72;3.65;;;;;;;8.88;83.59;100513.16;5072546;28;20044;-53
2021/05/26 06:44:20;;;;;;;6.28;4.15;;;;;;;8.60;84.75;100518.31;5049502;28;20474;-53
2021/05/26 06:46:46;;;;;;;7.20;4.30;;;;;;;8.76;84.83;100514.88;5058487;28;20035;-53
2021/05/26 06:49:12;;;;;;;6.68;3.60;;;;;;;8.81;82.96;100510.53;5060594;28;20118;-51
2021/05/26 06:51:38;;;;;;;5.65;2.80;;;;;;;9.05;79.69;100510.53;5074203;28;20139;-52
2021/05/26 06:54:04;;;;;;;5.53;2.80;;;;;;;8.89;80.33;100504.44;5046687;28;20051;-53
2021/05/26 06:56:30;;;;;;;5.45;2.70;;;;;;;8.62;82.32;100506.19;5075772;28;20031;-53
2021/05/26 06:58:56;;;;;;;5.00;3.03;;;;;;;8.82;79.90;100506.16;5077128;28;20027;-56
2021/05/26 07:01:22;;;;;;;7.93;2.83;;;;;;;8.86;80.03;100505.31;5051521;28;20044;-52
2021/05/26 07:03:49;;;;;;;5.38;2.50;;;;;;;8.99;78.42;100504.44;5059797;28;20455;-52
2021/05/26 07:06:14;;;;;;;4.50;2.53;;;;;;;8.83;80.12;100493.16;5068204;28;20194;-54
2021/05/26 07:08:40;;;;;;;5.50;2.85;;;;;;;8.87;82.07;100504.44;5056789;28;20469;-53
2021/05/26 07:11:06;;;;;;;5.28;2.78;;;;;;;8.69;80.63;100500.09;5062462;28;20032;-54
2021/05/26 07:13:31;;;;;;;6.13;3.03;;;;;;;8.71;81.51;100506.19;5075579;28;20070;-54
2021/05/26 07:15:57;;;;;;;5.90;2.70;;;;;;;8.84;80.19;100500.09;5082515;28;20035;-54
2021/05/26 07:18:23;;;;;;;3.88;2.22;;;;;;;8.98;79.14;100497.47;5065184;28;20126;-54
2021/05/26 07:20:50;;;;;;;4.50;2.20;;;;;;;8.97;78.00;100498.38;5077406;28;20297;-52
2021/05/26 07:23:19;;;;;;;4.47;2.53;;;;;;;8.84;80.81;100502.69;5051172;28;20032;-54
2021/05/26 07:25:44;;;;;;;6.30;2.00;;;;;;;9.10;77.21;100491.41;5078617;28;20526;-55
2021/05/26 07:28:10;;;;;;;3.20;1.90;;;;;;;9.10;78.48;100494.00;5062616;28;20047;-55
2021/05/26 07:30:36;;;;;;;6.30;1.98;;;;;;;9.10;77.35;100490.53;5062138;28;20064;-55
2021/05/26 07:33:02;;;;;;;3.00;1.75;;;;;;;9.11;77.35;100494.84;5057650;28;20144;-54
2021/05/26 07:35:28;;;;;;;3.20;1.90;;;;;;;8.86;79.67;100498.38;5062617;28;20142;-52
2021/05/26 07:37:53;;;;;;;5.57;2.10;;;;;;;9.05;78.40;100495.75;5060372;28;20064;-57
2021/05/26 07:40:19;;;;;;;3.55;1.75;;;;;;;9.23;76.59;100489.63;5074334;28;20039;-54
2021/05/26 07:42:47;;;;;;;3.17;1.40;;;;;;;9.23;75.76;100493.97;5068527;28;20165;-54
2021/05/26 07:45:14;;;;;;;4.07;1.90;;;;;;;9.02;77.87;100485.31;5040789;28;20269;-55
2021/05/26 07:47:39;;;;;;;3.78;1.98;;;;;;;9.20;76.60;100480.06;5060085;28;20055;-51
2021/05/26 07:50:07;;;;;;;3.30;2.10;;;;;;;9.14;76.69;100482.69;5080995;28;20043;-53
2021/05/26 07:52:32;;;;;;;4.15;1.77;;;;;;;9.17;77.75;100485.28;5061345;28;20407;-55
2021/05/26 07:54:58;;;;;;;4.55;2.10;;;;;;;9.30;77.05;100482.66;5078421;28;20040;-56
2021/05/26 07:57:24;;;;;;;5.20;1.58;;;;;;;9.43;77.17;100480.88;5077904;28;20132;-56
2021/05/26 07:59:50;;;;;;;4.95;1.80;;;;;;;9.51;76.34;100473.88;5076994;28;20116;-54
2021/05/26 08:02:17;;;;;;;4.28;1.85;;;;;;;9.45;76.13;100480.00;5059599;28;20439;-54
2021/05/26 08:04:43;;;;;;;3.65;1.13;;;;;;;9.59;76.68;100479.94;5081842;28;20203;-53
2021/05/26 08:07:09;;;;;;;3.25;1.70;;;;;;;9.57;75.02;100483.44;5072634;28;20506;-56
2021/05/26 08:09:39;;;;;;;3.47;2.03;;;;;;;9.42;78.20;100477.41;5078352;28;20062;-56
2021/05/26 08:12:09;;;;;;;3.60;1.98;;;;;;;9.54;76.55;100474.75;5082104;28;20471;-53
2021/05/26 08:14:36;;;;;;;2.97;1.30;;;;;;;9.58;74.64;100474.75;5074833;28;20085;-56
2021/05/26 08:17:03;;;;;;;4.60;2.08;;;;;;;9.48;76.65;100472.16;5082687;28;20044;-55
2021/05/26 08:19:29;;;;;;;2.83;1.67;;;;;;;9.71;74.55;100466.00;5078747;28;20480;-55
2021/05/26 08:21:54;;;;;;;3.38;1.83;;;;;;;9.52;76.61;100459.97;5054619;28;20071;-56
2021/05/26 08:24:20;;;;;;;4.07;1.85;;;;;;;9.47;77.58;100467.84;5069150;28;20116;-54
2021/05/26 08:26:48;;;;;;;4.00;2.03;;;;;;;9.62;76.28;100459.09;5063170;28;20048;-55
2021/05/26 08:29:14;;;;;;;2.42;1.60;;;;;;;9.43;77.50;100453.06;5077398;28;20190;-56
2021/05/26 08:31:40;;;;;;;3.70;1.70;;;;;;;9.33;79.50;100456.56;5062207;28;20044;-55
2021/05/26 08:34:05;;;;;;;2.65;1.85;;;;;;;9.48;77.04;100453.88;5075620;28;20684;-54
2021/05/26 08:36:31;;;;;;;4.63;2.20;;;;;;;9.62;77.91;100451.25;5077410;28;20334;-54
2021/05/26 08:38:57;;;;;;;2.80;1.65;;;;;;;9.72;76.73;100454.69;5079859;28;20051;-56
2021/05/26 08:41:23;;;;;;;3.08;1.70;;;;;;;9.87;75.88;100444.16;5079483;28;20144;-53
2021/05/26 08:43:49;;;;;;;2.25;1.10;;;;;;;10.13;72.72;100448.34;5076620;28;20055;-53
2021/05/26 08:46:15;;;;;;;2.35;1.13;;;;;;;9.93;75.18;100445.00;5077104;28;20382;-56
2021/05/26 08:48:45;;;;;;;2.20;1.10;;;;;;;9.88;76.50;100440.69;5073903;28;20478;-54
2021/05/26 08:51:12;;;;;;;1.52;0.98;;;;;;;10.09;73.64;100435.34;5078835;28;20486;-56
2021/05/26 08:53:38;;;;;;;2.10;1.10;;;;;;;9.97;75.48;100436.25;5077750;28;20143;-56
2021/05/26 08:56:04;;;;;;;1.85;1.20;;;;;;;9.86;75.04;100438.97;5079976;28;20119;-56
2021/05/26 08:58:35;;;;;;;1.90;1.00;;;;;;;9.76;74.53;100435.53;5079635;28;20458;-52
2021/05/26 09:01:03;;;;;;;2.78;1.08;;;;;;;9.62;76.39;100437.31;5071173;28;20503;-56
2021/05/26 09:03:30;;;;;;;1.37;0.93;;;;;;;10.00;74.08;100436.28;5074251;28;20123;-54
2021/05/26 09:05:59;;;;;;;3.10;1.00;;;;;;;10.22;70.17;100424.78;5074960;28;20055;-53
2021/05/26 09:08:25;;;;;;;2.38;1.00;;;;;;;10.02;69.95;100424.06;5079314;28;20435;-55
2021/05/26 09:10:58;;;;;;;1.50;1.02;;;;;;;9.75;73.99;100425.97;5079008;28;20040;-56
2021/05/26 09:13:34;;;;;;;1.92;1.13;;;;;;;9.80;73.50;100434.63;5076593;28;20047;-55
2021/05/26 09:16:07;;;;;;;2.80;1.20;;;;;;;9.91;72.84;100436.31;5078326;28;20039;-57
2021/05/26 09:19:02;;;;;;;1.90;1.15;;;;;;;10.01;72.81;100427.53;5077256;28;20040;-56
2021/05/26 09:21:42;;;;;;;3.70;1.50;;;;;;;10.02;73.24;100419.72;5079710;28;20043;-56
2021/05/26 09:24:29;;;;;;;1.95;1.25;;;;;;;10.05;72.63;100430.13;5075654;28;20051;-56
2021/05/26 09:27:03;;;;;;;2.08;1.30;;;;;;;10.05;72.13;100434.47;5077216;28;20108;-53
2021/05/26 09:29:31;;;;;;;3.30;1.30;;;;;;;10.03;72.71;100426.66;5057494;28;20149;-55
2021/05/26 09:32:27;;;;;;;3.17;1.58;;;;;;;10.04;71.81;100427.53;5060033;28;20511;-54
2021/05/26 09:34:54;;;;;;;3.13;1.30;;;;;;;9.89;72.86;100423.25;5076894;28;20357;-56
2021/05/26 09:37:25;;;;;;;2.42;1.15;;;;;;;10.02;71.52;100414.50;5076700;28;20035;-55
2021/05/26 09:39:53;;;;;;;2.65;1.10;;;;;;;9.89;73.76;100421.50;5072977;28;20149;-53
2021/05/26 09:42:36;;;;;;;2.20;1.20;;;;;;;9.95;73.93;100417.13;5058701;28;20032;-56
2021/05/26 09:45:27;;;;;;;2.58;1.25;;;;;;;10.06;73.57;100412.72;5077758;28;20122;-53
2021/05/26 09:47:55;;;;;;;2.78;1.40;;;;;;;10.08;72.93;100420.53;5077155;28;20506;-53
2021/05/26 09:50:22;;;;;;;2.30;1.60;;;;;;;10.11;72.76;100418.78;5076386;28;20043;-57
2021/05/26 09:52:54;;;;;;;3.60;1.45;;;;;;;10.17;71.32;100418.72;5063155;28;20217;-56
2021/05/26 09:55:44;;;;;;;3.20;1.50;;;;;;;10.11;73.03;100417.91;5073169;28;20135;-55
2021/05/26 09:58:12;;;;;;;2.58;1.33;;;;;;;10.16;73.23;100414.41;5078979;28;20046;-56
2021/05/26 10:00:44;;;;;;;2.67;1.75;;;;;;;10.17;73.13;100413.50;5063632;28;20136;-57
2021/05/26 10:03:11;;;;;;;2.35;1.20;;;;;;;10.30;71.02;100423.84;5063632;28;20036;-55
2021/05/26 10:05:36;;;;;;;3.80;1.40;;;;;;;10.19;73.09;100416.97;5038515;28;20044;-54
2021/05/26 10:08:21;;;;;;;3.90;1.42;;;;;;;10.34;71.91;100421.25;5071416;28;20035;-56
2021/05/26 10:11:01;;;;;;;2.40;1.30;;;;;;;10.10;75.16;100414.41;5023475;28;20024;-55
2021/05/26 10:13:28;;;;;;;2.65;1.50;;;;;;;10.25;73.28;100403.00;5039095;28;21392;-56
2021/05/26 10:15:55;;;;;;;3.55;1.85;;;;;;;10.17;74.41;100408.28;5067048;28;20437;-52
2021/05/26 10:18:22;;;;;;;3.20;1.92;;;;;;;10.42;72.00;100410.72;5076748;28;20044;-56
2021/05/26 10:20:48;;;;;;;4.35;1.67;;;;;;;10.69;71.42;100411.41;5073655;28;20412;-54
2021/05/26 10:23:19;;;;;;;2.40;1.50;;;;;;;10.60;71.94;100419.31;5072506;28;20041;-57
2021/05/26 10:25:46;;;;;;;2.47;1.17;;;;;;;10.39;73.25;100416.84;5076547;28;20644;-52
2021/05/26 10:28:26;;;;;;;2.05;1.30;;;;;;;10.42;73.02;100413.34;5056933;28;20063;-56
2021/05/26 10:30:52;;;;;;;1.65;1.10;;;;;;;10.51;71.65;100412.44;5074645;28;20048;-56
2021/05/26 10:33:18;;;;;;;2.25;1.20;;;;;;;10.54;72.03;100408.03;5075806;28;20104;-55
2021/05/26 10:35:56;;;;;;;2.47;1.42;;;;;;;10.41;73.82;100414.22;5056939;28;20416;-57
2021/05/26 10:38:22;;;;;;;2.25;1.52;;;;;;;10.63;72.04;100406.22;5049432;28;20043;-55
2021/05/26 10:40:59;;;;;;;4.95;1.55;;;;;;;10.61;74.16;100410.59;5080820;28;20031;-56
2021/05/26 10:43:26;;;;;;;2.25;1.45;;;;;;;10.58;73.90;100406.25;5041587;28;20396;-57
2021/05/26 10:45:53;;;;;;;2.85;1.58;;;;;;;10.55;74.83;100401.91;5051486;28;20058;-56
2021/05/26 10:48:38;;;;;;;3.40;1.50;;;;;;;10.88;72.20;100402.47;5073462;28;20046;-56
2021/05/26 10:51:04;;;;;;;4.78;1.60;;;;;;;10.59;73.96;100394.03;5060035;28;20035;-57
2021/05/26 10:53:38;;;;;;;3.47;1.50;;;;;;;10.80;72.71;100399.06;5072153;28;20038;-56
2021/05/26 10:56:04;;;;;;;2.20;1.45;;;;;;;10.81;72.27;100402.56;5073991;28;20040;-57
2021/05/26 10:58:41;;;;;;;4.43;1.33;;;;;;;10.48;73.29;100405.47;5072039;28;20032;-55
2021/05/26 11:01:08;;;;;;;2.03;1.35;;;;;;;10.95;72.16;100402.41;5071470;28;20047;-56
2021/05/26 11:03:37;;;;;;;3.45;1.40;;;;;;;10.78;71.90;100398.22;5056676;28;20072;-57
2021/05/26 11:06:10;;;;;;;2.55;1.60;;;;;;;10.72;72.19;100396.53;5058793;28;20400;-56
2021/05/26 11:08:43;;;;;;;4.20;1.80;;;;;;;10.50;74.31;100401.09;5074306;28;20113;-56
2021/05/26 11:11:39;;;;;;;2.90;1.63;;;;;;;10.75;75.28;100395.63;5077466;28;20054;-56
2021/05/26 11:14:13;;;;;;;2.17;1.38;;;;;;;10.65;73.69;100394.84;5075412;28;20523;-56
2021/05/26 11:16:51;;;;;;;2.92;1.70;;;;;;;10.66;75.13;100395.72;5071494;28;20128;-56
2021/05/26 11:19:22;;;;;;;2.95;1.92;;;;;;;10.95;72.29;100403.28;5072727;28;20086;-57
2021/05/26 11:21:57;;;;;;;3.22;1.70;;;;;;;11.07;70.96;100402.28;5073205;28;20035;-53
2021/05/26 11:24:24;;;;;;;3.95;1.90;;;;;;;10.92;72.65;100399.84;5073589;28;20454;-55
2021/05/26 11:26:53;;;;;;;2.80;1.75;;;;;;;10.82;74.58;100399.06;5054605;28;20044;-55
2021/05/26 11:29:33;;;;;;;3.72;1.88;;;;;;;10.57;77.75;100410.59;5075450;28;20063;-58
2021/05/26 11:32:15;;;;;;;3.35;1.70;;;;;;;10.98;74.62;100410.22;5072283;28;21478;-56
2021/05/26 11:34:43;;;;;;;3.65;1.40;;;;;;;10.77;75.65;100409.53;5071706;28;21550;-57
2021/05/26 11:37:10;;;;;;;3.30;1.20;;;;;;;10.81;74.73;100416.47;5040724;28;20126;-57
2021/05/26 11:39:37;;;;;;;2.28;1.52;;;;;;;10.80;73.66;100419.09;5072269;28;20670;-55